sensor_id;sensor_type;location;lat;lon;timestamp;P1;durP1;ratioP1;P2;durP2;ratioP2
68432;SDS011;55412;51.350;17.056;2024-03-02T00:00:07;76.70;;;34.78;;
68432;SDS011;55412;51.350;17.056;2024-03-02T00:02:40;81.97;;;35.22;;
68432;SDS011;55412;51.350;17.056;2024-03-02T00:05:07;81.03;;;35.38;;
68432;SDS011;55412;51.350;17.056;2024-03-02T00:07:33;77.78;;;35.53;;
68432;SDS011;55412;51.350;17.056;2024-03-02T00:09:59;78.67;;;35.90;;
68432;SDS011;55412;51.350;17.056;2024-03-02T00:12:25;85.00;;;33.92;;
68432;SDS011;55412;51.350;17.056;2024-03-02T00:14:54;78.88;;;34.97;;
68432;SDS011;55412;51.350;17.056;2024-03-02T00:17:24;77.97;;;33.83;;
68432;SDS011;55412;51.350;17.056;2024-03-02T00:19:53;74.63;;;34.97;;
68432;SDS011;55412;51.350;17.056;2024-03-02T00:22:19;76.07;;;35.73;;
68432;SDS011;55412;51.350;17.056;2024-03-02T00:24:44;76.90;;;34.90;;
68432;SDS011;55412;51.350;17.056;2024-03-02T00:27:12;80.22;;;35.85;;
68432;SDS011;55412;51.350;17.056;2024-03-02T00:29:40;73.63;;;32.87;;
68432;SDS011;55412;51.350;17.056;2024-03-02T00:32:14;74.95;;;34.63;;
68432;SDS011;55412;51.350;17.056;2024-03-02T00:34:42;83.45;;;35.45;;
68432;SDS011;55412;51.350;17.056;2024-03-02T00:37:08;81.13;;;35.73;;
68432;SDS011;55412;51.350;17.056;2024-03-02T00:39:34;85.88;;;34.17;;
68432;SDS011;55412;51.350;17.056;2024-03-02T00:42:00;75.85;;;35.20;;
68432;SDS011;55412;51.350;17.056;2024-03-02T00:44:30;79.30;;;36.60;;
68432;SDS011;55412;51.350;17.056;2024-03-02T00:47:00;84.07;;;35.50;;
68432;SDS011;55412;51.350;17.056;2024-03-02T00:49:27;85.03;;;36.57;;
68432;SDS011;55412;51.350;17.056;2024-03-02T00:51:54;87.25;;;36.60;;
68432;SDS011;55412;51.350;17.056;2024-03-02T00:54:21;84.63;;;36.58;;
68432;SDS011;55412;51.350;17.056;2024-03-02T00:56:52;87.93;;;38.20;;
68432;SDS011;55412;51.350;17.056;2024-03-02T00:59:20;84.32;;;37.05;;
68432;SDS011;55412;51.350;17.056;2024-03-02T01:01:47;87.00;;;36.10;;
68432;SDS011;55412;51.350;17.056;2024-03-02T01:04:15;89.43;;;36.90;;
68432;SDS011;55412;51.350;17.056;2024-03-02T01:06:44;91.75;;;37.80;;
68432;SDS011;55412;51.350;17.056;2024-03-02T01:09:10;89.43;;;39.47;;
68432;SDS011;55412;51.350;17.056;2024-03-02T01:11:37;93.05;;;38.40;;
68432;SDS011;55412;51.350;17.056;2024-03-02T01:14:03;92.17;;;37.80;;
68432;SDS011;55412;51.350;17.056;2024-03-02T01:16:29;96.10;;;38.75;;
68432;SDS011;55412;51.350;17.056;2024-03-02T01:18:55;87.93;;;37.45;;
68432;SDS011;55412;51.350;17.056;2024-03-02T01:21:25;99.50;;;38.87;;
68432;SDS011;55412;51.350;17.056;2024-03-02T01:23:50;100.57;;;39.63;;
68432;SDS011;55412;51.350;17.056;2024-03-02T01:26:16;98.97;;;38.93;;
68432;SDS011;55412;51.350;17.056;2024-03-02T01:28:46;95.60;;;39.97;;
68432;SDS011;55412;51.350;17.056;2024-03-02T01:31:12;94.15;;;38.80;;
68432;SDS011;55412;51.350;17.056;2024-03-02T01:33:38;89.65;;;37.45;;
68432;SDS011;55412;51.350;17.056;2024-03-02T01:36:09;84.73;;;35.93;;
68432;SDS011;55412;51.350;17.056;2024-03-02T01:38:35;86.32;;;36.30;;
68432;SDS011;55412;51.350;17.056;2024-03-02T01:41:01;92.53;;;37.88;;
68432;SDS011;55412;51.350;17.056;2024-03-02T01:43:27;86.57;;;34.00;;
68432;SDS011;55412;51.350;17.056;2024-03-02T01:45:56;84.65;;;35.60;;
68432;SDS011;55412;51.350;17.056;2024-03-02T01:48:21;93.65;;;37.83;;
68432;SDS011;55412;51.350;17.056;2024-03-02T01:50:47;82.93;;;34.57;;
68432;SDS011;55412;51.350;17.056;2024-03-02T01:53:13;87.97;;;34.47;;
68432;SDS011;55412;51.350;17.056;2024-03-02T01:55:39;85.68;;;36.17;;
68432;SDS011;55412;51.350;17.056;2024-03-02T01:58:05;84.47;;;34.73;;
68432;SDS011;55412;51.350;17.056;2024-03-02T02:00:31;83.27;;;35.07;;
68432;SDS011;55412;51.350;17.056;2024-03-02T02:03:00;81.30;;;33.85;;
68432;SDS011;55412;51.350;17.056;2024-03-02T02:05:26;79.45;;;35.53;;
68432;SDS011;55412;51.350;17.056;2024-03-02T02:07:52;79.90;;;34.73;;
68432;SDS011;55412;51.350;17.056;2024-03-02T02:10:18;80.68;;;33.85;;
68432;SDS011;55412;51.350;17.056;2024-03-02T02:12:44;84.60;;;35.30;;
68432;SDS011;55412;51.350;17.056;2024-03-02T02:17:51;82.15;;;34.70;;
68432;SDS011;55412;51.350;17.056;2024-03-02T02:20:18;77.32;;;33.35;;
68432;SDS011;55412;51.350;17.056;2024-03-02T02:23:00;79.53;;;35.13;;
68432;SDS011;55412;51.350;17.056;2024-03-02T02:25:27;76.50;;;33.30;;
68432;SDS011;55412;51.350;17.056;2024-03-02T02:27:53;77.70;;;33.97;;
68432;SDS011;55412;51.350;17.056;2024-03-02T02:30:21;83.38;;;32.58;;
68432;SDS011;55412;51.350;17.056;2024-03-02T02:32:51;83.15;;;33.38;;
68432;SDS011;55412;51.350;17.056;2024-03-02T02:35:16;81.63;;;33.10;;
68432;SDS011;55412;51.350;17.056;2024-03-02T02:37:43;75.32;;;33.17;;
68432;SDS011;55412;51.350;17.056;2024-03-02T02:40:10;78.55;;;33.00;;
68432;SDS011;55412;51.350;17.056;2024-03-02T02:42:37;79.15;;;30.35;;
68432;SDS011;55412;51.350;17.056;2024-03-02T02:45:04;82.72;;;33.72;;
68432;SDS011;55412;51.350;17.056;2024-03-02T02:47:30;79.00;;;31.70;;
68432;SDS011;55412;51.350;17.056;2024-03-02T02:49:58;79.00;;;34.03;;
68432;SDS011;55412;51.350;17.056;2024-03-02T02:52:24;83.47;;;34.70;;
68432;SDS011;55412;51.350;17.056;2024-03-02T02:54:50;82.70;;;32.17;;
68432;SDS011;55412;51.350;17.056;2024-03-02T02:57:16;81.25;;;34.97;;
68432;SDS011;55412;51.350;17.056;2024-03-02T02:59:42;83.73;;;33.13;;
68432;SDS011;55412;51.350;17.056;2024-03-02T03:02:07;84.18;;;36.15;;
68432;SDS011;55412;51.350;17.056;2024-03-02T03:04:33;81.97;;;33.13;;
68432;SDS011;55412;51.350;17.056;2024-03-02T03:06:59;85.22;;;34.33;;
68432;SDS011;55412;51.350;17.056;2024-03-02T03:09:24;84.87;;;32.27;;
68432;SDS011;55412;51.350;17.056;2024-03-02T03:11:50;94.75;;;35.28;;
68432;SDS011;55412;51.350;17.056;2024-03-02T03:14:16;83.47;;;34.60;;
68432;SDS011;55412;51.350;17.056;2024-03-02T03:16:41;86.22;;;35.55;;
68432;SDS011;55412;51.350;17.056;2024-03-02T03:19:10;82.88;;;34.42;;
68432;SDS011;55412;51.350;17.056;2024-03-02T03:21:39;83.00;;;33.17;;
68432;SDS011;55412;51.350;17.056;2024-03-02T03:24:05;87.82;;;32.92;;
68432;SDS011;55412;51.350;17.056;2024-03-02T03:26:30;81.07;;;32.13;;
68432;SDS011;55412;51.350;17.056;2024-03-02T03:28:56;79.95;;;31.25;;
68432;SDS011;55412;51.350;17.056;2024-03-02T03:31:23;87.72;;;35.30;;
68432;SDS011;55412;51.350;17.056;2024-03-02T03:33:48;84.37;;;33.03;;
68432;SDS011;55412;51.350;17.056;2024-03-02T03:36:17;91.25;;;34.67;;
68432;SDS011;55412;51.350;17.056;2024-03-02T03:38:43;85.83;;;32.70;;
68432;SDS011;55412;51.350;17.056;2024-03-02T03:41:09;95.03;;;35.17;;
68432;SDS011;55412;51.350;17.056;2024-03-02T03:43:35;93.37;;;34.57;;
68432;SDS011;55412;51.350;17.056;2024-03-02T03:46:01;86.55;;;34.08;;
68432;SDS011;55412;51.350;17.056;2024-03-02T03:48:27;93.90;;;36.58;;
68432;SDS011;55412;51.350;17.056;2024-03-02T03:50:56;88.85;;;34.95;;
68432;SDS011;55412;51.350;17.056;2024-03-02T03:53:21;95.68;;;35.83;;
68432;SDS011;55412;51.350;17.056;2024-03-02T03:55:47;94.70;;;35.03;;
68432;SDS011;55412;51.350;17.056;2024-03-02T03:58:16;97.55;;;36.65;;
68432;SDS011;55412;51.350;17.056;2024-03-02T04:00:44;100.75;;;35.97;;
68432;SDS011;55412;51.350;17.056;2024-03-02T04:03:12;93.07;;;34.83;;
68432;SDS011;55412;51.350;17.056;2024-03-02T04:05:43;88.60;;;33.17;;
68432;SDS011;55412;51.350;17.056;2024-03-02T04:08:09;92.30;;;34.50;;
68432;SDS011;55412;51.350;17.056;2024-03-02T04:10:38;103.10;;;35.25;;
68432;SDS011;55412;51.350;17.056;2024-03-02T04:13:05;86.10;;;35.53;;
68432;SDS011;55412;51.350;17.056;2024-03-02T04:15:31;89.83;;;32.57;;
68432;SDS011;55412;51.350;17.056;2024-03-02T04:17:56;89.80;;;33.78;;
68432;SDS011;55412;51.350;17.056;2024-03-02T04:20:22;81.50;;;35.73;;
68432;SDS011;55412;51.350;17.056;2024-03-02T04:22:48;87.78;;;35.72;;
68432;SDS011;55412;51.350;17.056;2024-03-02T04:25:14;80.83;;;33.70;;
68432;SDS011;55412;51.350;17.056;2024-03-02T04:27:39;83.03;;;32.85;;
68432;SDS011;55412;51.350;17.056;2024-03-02T04:30:06;80.10;;;32.80;;
68432;SDS011;55412;51.350;17.056;2024-03-02T04:32:32;75.78;;;31.60;;
68432;SDS011;55412;51.350;17.056;2024-03-02T04:34:58;78.30;;;32.70;;
68432;SDS011;55412;51.350;17.056;2024-03-02T04:37:23;70.47;;;31.13;;
68432;SDS011;55412;51.350;17.056;2024-03-02T04:39:49;76.97;;;30.05;;
68432;SDS011;55412;51.350;17.056;2024-03-02T04:42:15;72.50;;;30.50;;
68432;SDS011;55412;51.350;17.056;2024-03-02T04:44:40;71.05;;;30.10;;
68432;SDS011;55412;51.350;17.056;2024-03-02T04:47:06;81.83;;;31.47;;
68432;SDS011;55412;51.350;17.056;2024-03-02T04:49:32;74.22;;;30.60;;
68432;SDS011;55412;51.350;17.056;2024-03-02T04:51:58;73.57;;;28.10;;
68432;SDS011;55412;51.350;17.056;2024-03-02T04:54:27;67.25;;;29.70;;
68432;SDS011;55412;51.350;17.056;2024-03-02T04:56:52;67.00;;;30.07;;
68432;SDS011;55412;51.350;17.056;2024-03-02T04:59:18;62.75;;;28.40;;
68432;SDS011;55412;51.350;17.056;2024-03-02T05:01:45;73.82;;;30.77;;
68432;SDS011;55412;51.350;17.056;2024-03-02T05:04:11;66.35;;;29.52;;
68432;SDS011;55412;51.350;17.056;2024-03-02T05:06:37;71.83;;;29.23;;
68432;SDS011;55412;51.350;17.056;2024-03-02T05:09:04;68.90;;;26.67;;
68432;SDS011;55412;51.350;17.056;2024-03-02T05:11:30;68.25;;;29.05;;
68432;SDS011;55412;51.350;17.056;2024-03-02T05:14:05;66.15;;;27.45;;
68432;SDS011;55412;51.350;17.056;2024-03-02T05:16:37;75.97;;;29.83;;
68432;SDS011;55412;51.350;17.056;2024-03-02T05:19:09;67.55;;;29.02;;
68432;SDS011;55412;51.350;17.056;2024-03-02T05:21:35;73.30;;;30.48;;
68432;SDS011;55412;51.350;17.056;2024-03-02T05:24:00;68.83;;;29.23;;
68432;SDS011;55412;51.350;17.056;2024-03-02T05:26:26;69.95;;;29.10;;
68432;SDS011;55412;51.350;17.056;2024-03-02T05:28:55;65.37;;;30.33;;
68432;SDS011;55412;51.350;17.056;2024-03-02T05:31:20;75.82;;;30.30;;
68432;SDS011;55412;51.350;17.056;2024-03-02T05:33:46;72.77;;;31.17;;
68432;SDS011;55412;51.350;17.056;2024-03-02T05:36:12;77.35;;;30.70;;
68432;SDS011;55412;51.350;17.056;2024-03-02T05:38:38;71.82;;;30.98;;
68432;SDS011;55412;51.350;17.056;2024-03-02T05:41:03;70.37;;;28.63;;
68432;SDS011;55412;51.350;17.056;2024-03-02T05:43:37;76.22;;;30.95;;
68432;SDS011;55412;51.350;17.056;2024-03-02T05:46:03;70.20;;;30.07;;
68432;SDS011;55412;51.350;17.056;2024-03-02T05:48:28;77.55;;;31.38;;
68432;SDS011;55412;51.350;17.056;2024-03-02T05:50:54;78.25;;;32.30;;
68432;SDS011;55412;51.350;17.056;2024-03-02T05:53:20;77.10;;;28.77;;
68432;SDS011;55412;51.350;17.056;2024-03-02T05:55:46;72.53;;;29.95;;
68432;SDS011;55412;51.350;17.056;2024-03-02T05:58:12;76.50;;;31.57;;
68432;SDS011;55412;51.350;17.056;2024-03-02T06:00:52;75.10;;;31.25;;
68432;SDS011;55412;51.350;17.056;2024-03-02T06:03:19;82.50;;;33.22;;
68432;SDS011;55412;51.350;17.056;2024-03-02T06:05:45;73.70;;;30.67;;
68432;SDS011;55412;51.350;17.056;2024-03-02T06:08:11;77.05;;;30.35;;
68432;SDS011;55412;51.350;17.056;2024-03-02T06:10:36;75.57;;;30.57;;
68432;SDS011;55412;51.350;17.056;2024-03-02T06:13:02;76.13;;;29.10;;
68432;SDS011;55412;51.350;17.056;2024-03-02T06:15:28;78.27;;;29.23;;
68432;SDS011;55412;51.350;17.056;2024-03-02T06:17:56;75.10;;;29.05;;
68432;SDS011;55412;51.350;17.056;2024-03-02T06:20:22;75.43;;;29.55;;
68432;SDS011;55412;51.350;17.056;2024-03-02T06:22:48;70.93;;;28.90;;
68432;SDS011;55412;51.350;17.056;2024-03-02T06:25:16;74.20;;;31.23;;
68432;SDS011;55412;51.350;17.056;2024-03-02T06:27:42;76.50;;;31.63;;
68432;SDS011;55412;51.350;17.056;2024-03-02T06:30:08;75.55;;;32.65;;
68432;SDS011;55412;51.350;17.056;2024-03-02T06:32:34;68.83;;;30.03;;
68432;SDS011;55412;51.350;17.056;2024-03-02T06:35:01;72.00;;;28.30;;
68432;SDS011;55412;51.350;17.056;2024-03-02T06:37:26;75.70;;;30.58;;
68432;SDS011;55412;51.350;17.056;2024-03-02T06:39:52;64.47;;;28.77;;
68432;SDS011;55412;51.350;17.056;2024-03-02T06:42:18;66.03;;;28.15;;
68432;SDS011;55412;51.350;17.056;2024-03-02T06:44:43;72.27;;;29.30;;
68432;SDS011;55412;51.350;17.056;2024-03-02T06:47:09;81.10;;;30.08;;
68432;SDS011;55412;51.350;17.056;2024-03-02T06:49:35;66.30;;;29.07;;
68432;SDS011;55412;51.350;17.056;2024-03-02T06:52:01;63.47;;;28.35;;
68432;SDS011;55412;51.350;17.056;2024-03-02T06:54:29;59.55;;;28.02;;
68432;SDS011;55412;51.350;17.056;2024-03-02T06:56:55;62.87;;;29.70;;
68432;SDS011;55412;51.350;17.056;2024-03-02T06:59:21;70.95;;;28.95;;
68432;SDS011;55412;51.350;17.056;2024-03-02T07:01:50;63.97;;;28.58;;
68432;SDS011;55412;51.350;17.056;2024-03-02T07:04:15;63.17;;;28.50;;
68432;SDS011;55412;51.350;17.056;2024-03-02T07:06:41;66.18;;;27.52;;
68432;SDS011;55412;51.350;17.056;2024-03-02T07:09:07;61.73;;;26.97;;
68432;SDS011;55412;51.350;17.056;2024-03-02T07:11:36;69.47;;;30.60;;
68432;SDS011;55412;51.350;17.056;2024-03-02T07:14:02;64.18;;;27.33;;
68432;SDS011;55412;51.350;17.056;2024-03-02T07:16:28;72.43;;;30.23;;
68432;SDS011;55412;51.350;17.056;2024-03-02T07:18:55;64.15;;;28.58;;
68432;SDS011;55412;51.350;17.056;2024-03-02T07:21:22;66.97;;;29.90;;
68432;SDS011;55412;51.350;17.056;2024-03-02T07:23:48;65.03;;;29.27;;
68432;SDS011;55412;51.350;17.056;2024-03-02T07:26:15;66.88;;;29.30;;
68432;SDS011;55412;51.350;17.056;2024-03-02T07:28:41;59.30;;;27.77;;
68432;SDS011;55412;51.350;17.056;2024-03-02T07:31:09;60.33;;;28.77;;
68432;SDS011;55412;51.350;17.056;2024-03-02T07:33:35;62.47;;;29.13;;
68432;SDS011;55412;51.350;17.056;2024-03-02T07:36:01;60.90;;;28.20;;
68432;SDS011;55412;51.350;17.056;2024-03-02T07:38:30;58.23;;;28.53;;
68432;SDS011;55412;51.350;17.056;2024-03-02T07:40:57;61.00;;;29.23;;
68432;SDS011;55412;51.350;17.056;2024-03-02T07:43:23;62.33;;;28.35;;
68432;SDS011;55412;51.350;17.056;2024-03-02T07:45:49;59.88;;;26.85;;
68432;SDS011;55412;51.350;17.056;2024-03-02T07:48:15;63.33;;;28.80;;
68432;SDS011;55412;51.350;17.056;2024-03-02T07:50:41;66.60;;;31.75;;
68432;SDS011;55412;51.350;17.056;2024-03-02T07:53:08;60.80;;;28.52;;
68432;SDS011;55412;51.350;17.056;2024-03-02T07:55:34;60.03;;;27.53;;
68432;SDS011;55412;51.350;17.056;2024-03-02T07:58:02;52.53;;;25.80;;
68432;SDS011;55412;51.350;17.056;2024-03-02T08:00:29;63.78;;;28.00;;
68432;SDS011;55412;51.350;17.056;2024-03-02T08:02:55;54.17;;;26.03;;
68432;SDS011;55412;51.350;17.056;2024-03-02T08:05:21;56.13;;;26.23;;
68432;SDS011;55412;51.350;17.056;2024-03-02T08:07:47;60.80;;;28.55;;
68432;SDS011;55412;51.350;17.056;2024-03-02T08:10:13;55.27;;;27.27;;
68432;SDS011;55412;51.350;17.056;2024-03-02T08:12:39;55.10;;;27.90;;
68432;SDS011;55412;51.350;17.056;2024-03-02T08:15:05;58.33;;;27.15;;
68432;SDS011;55412;51.350;17.056;2024-03-02T08:17:31;59.50;;;28.77;;
68432;SDS011;55412;51.350;17.056;2024-03-02T08:19:57;57.70;;;28.47;;
68432;SDS011;55412;51.350;17.056;2024-03-02T08:22:23;57.47;;;28.48;;
68432;SDS011;55412;51.350;17.056;2024-03-02T08:24:52;53.85;;;26.38;;
68432;SDS011;55412;51.350;17.056;2024-03-02T08:27:19;56.45;;;28.08;;
68432;SDS011;55412;51.350;17.056;2024-03-02T08:29:45;60.77;;;28.93;;
68432;SDS011;55412;51.350;17.056;2024-03-02T08:32:11;54.45;;;27.35;;
68432;SDS011;55412;51.350;17.056;2024-03-02T08:34:36;56.70;;;27.87;;
68432;SDS011;55412;51.350;17.056;2024-03-02T08:37:02;55.00;;;25.05;;
68432;SDS011;55412;51.350;17.056;2024-03-02T08:39:28;52.50;;;26.25;;
68432;SDS011;55412;51.350;17.056;2024-03-02T08:41:54;50.67;;;24.03;;
68432;SDS011;55412;51.350;17.056;2024-03-02T08:44:20;53.00;;;24.88;;
68432;SDS011;55412;51.350;17.056;2024-03-02T08:46:46;53.83;;;24.52;;
68432;SDS011;55412;51.350;17.056;2024-03-02T08:49:12;49.03;;;24.17;;
68432;SDS011;55412;51.350;17.056;2024-03-02T08:51:38;51.58;;;24.90;;
68432;SDS011;55412;51.350;17.056;2024-03-02T08:54:04;49.53;;;24.63;;
68432;SDS011;55412;51.350;17.056;2024-03-02T08:56:30;49.30;;;23.47;;
68432;SDS011;55412;51.350;17.056;2024-03-02T08:58:56;45.38;;;23.98;;
68432;SDS011;55412;51.350;17.056;2024-03-02T09:01:22;52.53;;;24.35;;
68432;SDS011;55412;51.350;17.056;2024-03-02T09:03:48;47.83;;;24.83;;
68432;SDS011;55412;51.350;17.056;2024-03-02T09:06:14;46.67;;;22.70;;
68432;SDS011;55412;51.350;17.056;2024-03-02T09:08:44;49.30;;;24.02;;
68432;SDS011;55412;51.350;17.056;2024-03-02T09:11:10;43.20;;;22.25;;
68432;SDS011;55412;51.350;17.056;2024-03-02T09:13:37;44.83;;;22.55;;
68432;SDS011;55412;51.350;17.056;2024-03-02T09:16:03;45.70;;;22.58;;
68432;SDS011;55412;51.350;17.056;2024-03-02T09:18:30;42.33;;;20.73;;
68432;SDS011;55412;51.350;17.056;2024-03-02T09:20:56;42.90;;;21.58;;
68432;SDS011;55412;51.350;17.056;2024-03-02T09:23:22;44.85;;;22.40;;
68432;SDS011;55412;51.350;17.056;2024-03-02T09:25:48;42.20;;;21.23;;
68432;SDS011;55412;51.350;17.056;2024-03-02T09:28:16;47.15;;;21.38;;
68432;SDS011;55412;51.350;17.056;2024-03-02T09:30:42;46.53;;;22.92;;
68432;SDS011;55412;51.350;17.056;2024-03-02T09:33:08;43.70;;;23.17;;
68432;SDS011;55412;51.350;17.056;2024-03-02T09:35:34;44.55;;;22.40;;
68432;SDS011;55412;51.350;17.056;2024-03-02T09:37:59;43.80;;;22.03;;
68432;SDS011;55412;51.350;17.056;2024-03-02T09:40:25;45.63;;;21.77;;
68432;SDS011;55412;51.350;17.056;2024-03-02T09:42:51;44.17;;;21.90;;
68432;SDS011;55412;51.350;17.056;2024-03-02T09:45:24;41.10;;;21.00;;
68432;SDS011;55412;51.350;17.056;2024-03-02T09:47:51;38.33;;;19.17;;
68432;SDS011;55412;51.350;17.056;2024-03-02T09:50:17;41.73;;;20.37;;
68432;SDS011;55412;51.350;17.056;2024-03-02T09:52:43;45.10;;;22.10;;
68432;SDS011;55412;51.350;17.056;2024-03-02T09:55:09;38.72;;;19.73;;
68432;SDS011;55412;51.350;17.056;2024-03-02T09:57:36;39.72;;;20.85;;
68432;SDS011;55412;51.350;17.056;2024-03-02T10:00:02;40.80;;;20.03;;
68432;SDS011;55412;51.350;17.056;2024-03-02T10:02:28;42.85;;;21.17;;
68432;SDS011;55412;51.350;17.056;2024-03-02T10:04:54;42.27;;;21.17;;
68432;SDS011;55412;51.350;17.056;2024-03-02T10:07:20;39.03;;;19.63;;
68432;SDS011;55412;51.350;17.056;2024-03-02T10:09:46;41.17;;;21.60;;
68432;SDS011;55412;51.350;17.056;2024-03-02T10:12:14;40.70;;;19.42;;
68432;SDS011;55412;51.350;17.056;2024-03-02T10:14:42;38.17;;;18.27;;
68432;SDS011;55412;51.350;17.056;2024-03-02T10:17:09;40.97;;;19.83;;
68432;SDS011;55412;51.350;17.056;2024-03-02T10:19:36;39.45;;;18.58;;
68432;SDS011;55412;51.350;17.056;2024-03-02T10:22:04;38.97;;;19.53;;
68432;SDS011;55412;51.350;17.056;2024-03-02T10:24:40;39.25;;;19.80;;
68432;SDS011;55412;51.350;17.056;2024-03-02T10:27:14;32.90;;;17.67;;
68432;SDS011;55412;51.350;17.056;2024-03-02T10:29:47;33.47;;;17.52;;
68432;SDS011;55412;51.350;17.056;2024-03-02T10:32:14;35.25;;;18.17;;
68432;SDS011;55412;51.350;17.056;2024-03-02T10:34:40;34.10;;;18.37;;
68432;SDS011;55412;51.350;17.056;2024-03-02T10:37:07;36.80;;;18.73;;
68432;SDS011;55412;51.350;17.056;2024-03-02T10:39:34;39.72;;;19.10;;
68432;SDS011;55412;51.350;17.056;2024-03-02T10:42:02;31.73;;;16.45;;
68432;SDS011;55412;51.350;17.056;2024-03-02T10:44:28;33.63;;;17.23;;
68432;SDS011;55412;51.350;17.056;2024-03-02T10:46:55;31.23;;;16.63;;
68432;SDS011;55412;51.350;17.056;2024-03-02T10:49:22;32.53;;;16.13;;
68432;SDS011;55412;51.350;17.056;2024-03-02T10:51:49;34.45;;;16.60;;
68432;SDS011;55412;51.350;17.056;2024-03-02T10:54:15;30.58;;;16.95;;
68432;SDS011;55412;51.350;17.056;2024-03-02T10:56:42;33.40;;;16.23;;
68432;SDS011;55412;51.350;17.056;2024-03-02T10:59:24;29.77;;;15.60;;
68432;SDS011;55412;51.350;17.056;2024-03-02T11:01:53;29.50;;;15.68;;
68432;SDS011;55412;51.350;17.056;2024-03-02T11:04:26;26.33;;;15.25;;
68432;SDS011;55412;51.350;17.056;2024-03-02T11:07:04;31.07;;;15.87;;
68432;SDS011;55412;51.350;17.056;2024-03-02T11:09:33;30.95;;;15.23;;
68432;SDS011;55412;51.350;17.056;2024-03-02T11:12:04;28.38;;;16.17;;
68432;SDS011;55412;51.350;17.056;2024-03-02T11:14:37;34.08;;;14.30;;
68432;SDS011;55412;51.350;17.056;2024-03-02T11:17:08;29.42;;;15.65;;
68432;SDS011;55412;51.350;17.056;2024-03-02T11:19:36;30.27;;;14.60;;
68432;SDS011;55412;51.350;17.056;2024-03-02T11:22:03;29.00;;;15.82;;
68432;SDS011;55412;51.350;17.056;2024-03-02T11:24:30;30.90;;;15.48;;
68432;SDS011;55412;51.350;17.056;2024-03-02T11:26:58;32.80;;;17.45;;
68432;SDS011;55412;51.350;17.056;2024-03-02T11:32:00;33.13;;;15.93;;
68432;SDS011;55412;51.350;17.056;2024-03-02T11:34:30;30.17;;;14.90;;
68432;SDS011;55412;51.350;17.056;2024-03-02T11:36:57;29.38;;;14.77;;
68432;SDS011;55412;51.350;17.056;2024-03-02T11:39:25;31.50;;;17.13;;
68432;SDS011;55412;51.350;17.056;2024-03-02T11:41:51;34.45;;;18.15;;
68432;SDS011;55412;51.350;17.056;2024-03-02T11:44:17;27.83;;;13.77;;
68432;SDS011;55412;51.350;17.056;2024-03-02T11:46:57;26.83;;;14.68;;
68432;SDS011;55412;51.350;17.056;2024-03-02T11:52:06;28.88;;;15.43;;
68432;SDS011;55412;51.350;17.056;2024-03-02T11:54:34;26.93;;;15.83;;
68432;SDS011;55412;51.350;17.056;2024-03-02T11:57:05;28.63;;;14.95;;
68432;SDS011;55412;51.350;17.056;2024-03-02T11:59:31;30.55;;;15.05;;
68432;SDS011;55412;51.350;17.056;2024-03-02T12:01:58;24.83;;;13.63;;
68432;SDS011;55412;51.350;17.056;2024-03-02T12:04:25;38.50;;;16.08;;
68432;SDS011;55412;51.350;17.056;2024-03-02T12:06:57;27.83;;;14.60;;
68432;SDS011;55412;51.350;17.056;2024-03-02T12:09:27;29.50;;;14.63;;
68432;SDS011;55412;51.350;17.056;2024-03-02T12:14:32;32.08;;;16.83;;
68432;SDS011;55412;51.350;17.056;2024-03-02T12:16:59;35.25;;;15.52;;
68432;SDS011;55412;51.350;17.056;2024-03-02T12:19:26;27.93;;;14.60;;
68432;SDS011;55412;51.350;17.056;2024-03-02T12:21:58;28.15;;;14.85;;
68432;SDS011;55412;51.350;17.056;2024-03-02T12:24:30;30.13;;;14.20;;
68432;SDS011;55412;51.350;17.056;2024-03-02T12:26:56;28.63;;;13.98;;
68432;SDS011;55412;51.350;17.056;2024-03-02T12:29:23;25.67;;;14.43;;
68432;SDS011;55412;51.350;17.056;2024-03-02T12:31:52;24.30;;;14.13;;
68432;SDS011;55412;51.350;17.056;2024-03-02T12:34:18;27.52;;;15.10;;
68432;SDS011;55412;51.350;17.056;2024-03-02T12:36:45;29.98;;;14.52;;
68432;SDS011;55412;51.350;17.056;2024-03-02T12:39:14;26.17;;;14.27;;
68432;SDS011;55412;51.350;17.056;2024-03-02T12:41:41;30.25;;;15.35;;
68432;SDS011;55412;51.350;17.056;2024-03-02T12:44:07;27.23;;;14.97;;
68432;SDS011;55412;51.350;17.056;2024-03-02T12:46:34;27.67;;;15.00;;
68432;SDS011;55412;51.350;17.056;2024-03-02T12:49:09;25.33;;;12.85;;
68432;SDS011;55412;51.350;17.056;2024-03-02T12:51:41;27.20;;;14.50;;
68432;SDS011;55412;51.350;17.056;2024-03-02T12:54:07;30.90;;;14.63;;
68432;SDS011;55412;51.350;17.056;2024-03-02T12:56:35;28.63;;;13.95;;
68432;SDS011;55412;51.350;17.056;2024-03-02T12:59:01;28.20;;;14.90;;
68432;SDS011;55412;51.350;17.056;2024-03-02T13:01:27;29.20;;;14.10;;
68432;SDS011;55412;51.350;17.056;2024-03-02T13:03:53;30.80;;;15.53;;
68432;SDS011;55412;51.350;17.056;2024-03-02T13:06:23;27.50;;;14.05;;
68432;SDS011;55412;51.350;17.056;2024-03-02T13:08:49;28.63;;;14.75;;
68432;SDS011;55412;51.350;17.056;2024-03-02T13:11:16;27.77;;;14.07;;
68432;SDS011;55412;51.350;17.056;2024-03-02T13:13:42;27.65;;;14.18;;
68432;SDS011;55412;51.350;17.056;2024-03-02T13:16:09;26.40;;;14.37;;
68432;SDS011;55412;51.350;17.056;2024-03-02T13:18:36;28.13;;;14.55;;
68432;SDS011;55412;51.350;17.056;2024-03-02T13:21:02;27.95;;;13.90;;
68432;SDS011;55412;51.350;17.056;2024-03-02T13:23:29;29.45;;;15.27;;
68432;SDS011;55412;51.350;17.056;2024-03-02T13:25:56;26.07;;;12.40;;
68432;SDS011;55412;51.350;17.056;2024-03-02T13:28:24;25.63;;;12.45;;
68432;SDS011;55412;51.350;17.056;2024-03-02T13:30:51;25.65;;;13.05;;
68432;SDS011;55412;51.350;17.056;2024-03-02T13:33:18;25.38;;;12.38;;
68432;SDS011;55412;51.350;17.056;2024-03-02T13:35:50;24.75;;;12.98;;
68432;SDS011;55412;51.350;17.056;2024-03-02T13:38:17;23.77;;;13.43;;
68432;SDS011;55412;51.350;17.056;2024-03-02T13:40:44;24.27;;;13.25;;
68432;SDS011;55412;51.350;17.056;2024-03-02T13:43:12;24.35;;;12.68;;
68432;SDS011;55412;51.350;17.056;2024-03-02T13:45:38;22.60;;;10.65;;
68432;SDS011;55412;51.350;17.056;2024-03-02T13:48:04;24.75;;;11.35;;
68432;SDS011;55412;51.350;17.056;2024-03-02T13:50:31;22.67;;;11.17;;
68432;SDS011;55412;51.350;17.056;2024-03-02T13:52:57;25.42;;;10.90;;
68432;SDS011;55412;51.350;17.056;2024-03-02T13:55:23;19.73;;;11.07;;
68432;SDS011;55412;51.350;17.056;2024-03-02T13:57:49;24.43;;;12.07;;
68432;SDS011;55412;51.350;17.056;2024-03-02T14:00:17;25.52;;;12.27;;
68432;SDS011;55412;51.350;17.056;2024-03-02T14:02:45;20.60;;;10.15;;
68432;SDS011;55412;51.350;17.056;2024-03-02T14:05:11;21.05;;;10.52;;
68432;SDS011;55412;51.350;17.056;2024-03-02T14:07:40;22.30;;;10.63;;
68432;SDS011;55412;51.350;17.056;2024-03-02T14:10:07;21.42;;;9.88;;
68432;SDS011;55412;51.350;17.056;2024-03-02T14:12:33;24.55;;;10.35;;
68432;SDS011;55412;51.350;17.056;2024-03-02T14:14:59;21.83;;;10.57;;
68432;SDS011;55412;51.350;17.056;2024-03-02T14:17:27;21.08;;;10.75;;